createdAt,value
2019-02-04T00:00:24.791Z,-0.8
2019-02-04T00:01:27.640Z,-0.8
2019-02-04T00:02:30.302Z,-0.8
2019-02-04T00:03:32.922Z,-0.9
2019-02-04T00:04:35.085Z,-0.9
2019-02-04T00:05:37.315Z,-0.8
2019-02-04T00:06:39.433Z,-0.8
2019-02-04T00:07:41.578Z,-0.8
2019-02-04T00:08:43.636Z,-0.9
2019-02-04T00:09:45.696Z,-0.8
2019-02-04T00:10:47.724Z,-0.8
2019-02-04T00:11:50.076Z,-0.8
2019-02-04T00:12:52.844Z,-0.9
2019-02-04T00:13:55.310Z,-0.9
2019-02-04T00:14:57.392Z,-0.9
2019-02-04T00:15:59.505Z,-0.9
2019-02-04T00:17:01.869Z,-1
2019-02-04T00:18:03.909Z,-1
2019-02-04T00:19:06.084Z,-1
2019-02-04T00:20:08.125Z,-1
2019-02-04T00:21:10.856Z,-1
2019-02-04T00:22:12.914Z,-1
2019-02-04T00:23:15.300Z,-1
2019-02-04T00:24:18.620Z,-1
2019-02-04T00:25:23.066Z,-1
2019-02-04T00:26:25.553Z,-1
2019-02-04T00:27:28.003Z,-1.1
2019-02-04T00:28:30.071Z,-1
2019-02-04T00:29:32.128Z,-1
2019-02-04T00:30:34.239Z,-1.1
2019-02-04T00:31:36.705Z,-1.1
2019-02-04T00:32:38.750Z,-1.1
2019-02-04T00:33:41.091Z,-1
2019-02-04T00:34:43.140Z,-1
2019-02-04T00:35:46.180Z,-1
2019-02-04T00:36:48.697Z,-1.1
2019-02-04T00:37:50.904Z,-1.1
2019-02-04T00:38:52.956Z,-1.3
2019-02-04T00:39:55.400Z,-1.2
2019-02-04T00:40:57.653Z,-1.2
2019-02-04T00:42:00.098Z,-1.2
2019-02-04T00:43:02.433Z,-1.1
2019-02-04T00:44:04.845Z,-1.2
2019-02-04T00:45:07.191Z,-1.2
2019-02-04T00:46:09.529Z,-1.2
2019-02-04T00:47:12.575Z,-1.2
2019-02-04T00:48:15.165Z,-1.2
2019-02-04T00:49:17.596Z,-1.2
2019-02-04T00:50:19.725Z,-1.2
2019-02-04T00:51:21.761Z,-1.2
2019-02-04T00:52:23.839Z,-1.2
2019-02-04T00:53:25.873Z,-1.2
2019-02-04T00:54:27.980Z,-1.2
2019-02-04T00:55:30.050Z,-1.2
2019-02-04T00:56:32.514Z,-1.2
2019-02-04T00:57:35.304Z,-1.2
2019-02-04T00:58:37.981Z,-1.2
2019-02-04T00:59:40.756Z,-1.2
2019-02-04T01:00:42.908Z,-1.2
2019-02-04T01:01:45.268Z,-1.2
2019-02-04T01:02:47.343Z,-1.2
2019-02-04T01:03:49.372Z,-1.2
2019-02-04T01:04:51.440Z,-1.3
2019-02-04T01:05:53.833Z,-1.3
2019-02-04T01:06:55.868Z,-1.3
2019-02-04T01:07:57.914Z,-1.3
2019-02-04T01:09:01.407Z,-1.4
2019-02-04T01:10:03.951Z,-1.4
2019-02-04T01:11:06.507Z,-1.4
2019-02-04T01:12:08.561Z,-1.4
2019-02-04T01:13:10.583Z,-1.4
2019-02-04T01:14:12.638Z,-1.4
2019-02-04T01:15:14.716Z,-1.5
2019-02-04T01:16:16.761Z,-1.5
2019-02-04T01:17:18.815Z,-1.5
2019-02-04T01:18:20.851Z,-1.7
2019-02-04T01:19:23.037Z,-1.6
2019-02-04T01:20:26.230Z,-1.6
2019-02-04T01:21:29.064Z,-1.7
2019-02-04T01:22:31.108Z,-1.7
2019-02-04T01:23:33.153Z,-1.6
2019-02-04T01:24:35.515Z,-1.7
2019-02-04T01:25:37.955Z,-1.6
2019-02-04T01:26:40.013Z,-1.6
2019-02-04T01:27:42.227Z,-1.6
2019-02-04T01:28:44.260Z,-1.5
2019-02-04T01:29:46.297Z,-1.6
2019-02-04T01:30:48.370Z,-1.6
2019-02-04T01:31:51.573Z,-1.7
2019-02-04T01:32:54.187Z,-1.8
2019-02-04T01:33:56.246Z,-1.7
2019-02-04T01:34:58.277Z,-1.7
2019-02-04T01:36:00.414Z,-1.6
2019-02-04T01:37:02.461Z,-1.7
2019-02-04T01:38:04.616Z,-1.7
2019-02-04T01:39:06.661Z,-1.7
2019-02-04T01:40:08.713Z,-1.6
2019-02-04T01:41:11.149Z,-1.6
2019-02-04T01:42:13.375Z,-1.6
2019-02-04T01:43:16.438Z,-1.6
2019-02-04T01:44:19.104Z,-1.5
2019-02-04T01:45:21.418Z,-1.4
2019-02-04T01:46:23.496Z,-1.4
2019-02-04T01:47:25.544Z,-1.4
2019-02-04T01:48:28.215Z,-1.4
2019-02-04T01:49:30.622Z,-1.4
2019-02-04T01:50:33.131Z,-1.5
2019-02-04T01:51:35.529Z,-1.6
2019-02-04T01:52:37.559Z,-1.5
2019-02-04T01:53:39.996Z,-1.6
2019-02-04T01:54:42.964Z,-1.5
2019-02-04T01:55:45.712Z,-1.7
2019-02-04T01:56:47.778Z,-1.6
2019-02-04T01:57:50.581Z,-1.7
2019-02-04T01:58:53.018Z,-1.7
2019-02-04T01:59:55.073Z,-1.7
2019-02-04T02:00:57.113Z,-1.6
2019-02-04T02:01:59.165Z,-1.5
2019-02-04T02:03:01.423Z,-1.5
2019-02-04T02:04:03.486Z,-1.5
2019-02-04T02:05:06.323Z,-1.5
2019-02-04T02:06:09.176Z,-1.5
2019-02-04T02:07:11.766Z,-1.5
2019-02-04T02:08:13.850Z,-1.5
2019-02-04T02:09:15.919Z,-1.4
2019-02-04T02:10:17.990Z,-1.3
2019-02-04T02:11:20.012Z,-1.3
2019-02-04T02:12:22.057Z,-1.3
2019-02-04T02:13:24.105Z,-1.2
2019-02-04T02:14:26.255Z,-1.2
2019-02-04T02:15:28.297Z,-1.3
2019-02-04T02:16:31.082Z,-1.2
2019-02-04T02:17:33.472Z,-1.2
2019-02-04T02:18:36.130Z,-1.1
2019-02-04T02:19:38.276Z,-1.2
2019-02-04T02:20:40.459Z,-1.2
2019-02-04T02:21:42.540Z,-1.2
2019-02-04T02:22:44.596Z,-1.2
2019-02-04T02:23:46.648Z,-1.2
2019-02-04T02:24:49.172Z,-1.2
2019-02-04T02:25:51.216Z,-1.1
2019-02-04T02:26:53.256Z,-1.1
2019-02-04T02:27:56.117Z,-1.2
2019-02-04T02:28:58.595Z,-1.2
2019-02-04T02:30:01.439Z,-1.2
2019-02-04T02:31:03.771Z,-1.1
2019-02-04T02:32:06.528Z,-1.1
2019-02-04T02:33:08.612Z,-1.1
2019-02-04T02:34:10.960Z,-1.1
2019-02-04T02:35:12.993Z,-1.1
2019-02-04T02:36:15.033Z,-1.1
2019-02-04T02:37:17.270Z,-1.1
2019-02-04T02:38:19.763Z,-1.1
2019-02-04T02:39:22.848Z,-1.2
2019-02-04T02:40:25.465Z,-1.2
2019-02-04T02:41:27.801Z,-1.2
2019-02-04T02:42:29.876Z,-1.2
2019-02-04T02:43:32.753Z,-1.2
2019-02-04T02:44:34.780Z,-1.2
2019-02-04T02:45:37.115Z,-1.2
2019-02-04T02:46:39.544Z,-1.2
2019-02-04T02:47:41.591Z,-1.2
2019-02-04T02:48:43.656Z,-1.2
2019-02-04T02:49:46.873Z,-1.2
2019-02-04T02:50:49.617Z,-1.2
2019-02-04T02:51:52.411Z,-1.2
2019-02-04T02:52:55.075Z,-1.2
2019-02-04T02:53:57.111Z,-1.1
2019-02-04T02:54:59.172Z,-1.1
2019-02-04T02:56:01.211Z,-1.1
2019-02-04T02:57:03.300Z,-1.1
2019-02-04T02:58:05.367Z,-1.1
2019-02-04T02:59:07.399Z,-1.1
2019-02-04T03:00:09.453Z,-1.1
2019-02-04T03:01:12.090Z,-1.1
2019-02-04T03:02:14.506Z,-1.1
2019-02-04T03:03:16.920Z,-1.1
2019-02-04T03:04:18.971Z,-1.1
2019-02-04T03:05:21.149Z,-1.1
2019-02-04T03:06:23.184Z,-1.1
2019-02-04T03:07:25.622Z,-1.1
2019-02-04T03:08:27.680Z,-1.1
2019-02-04T03:09:29.748Z,-1.1
2019-02-04T03:10:31.875Z,-1.1
2019-02-04T03:11:33.942Z,-1.1
2019-02-04T03:12:36.925Z,-1.2
2019-02-04T03:13:39.616Z,-1.2
2019-02-04T03:14:41.646Z,-1.2
2019-02-04T03:15:43.989Z,-1.2
2019-02-04T03:16:46.052Z,-1.2
2019-02-04T03:17:53.709Z,-1.2
2019-02-04T03:18:55.760Z,-1.2
2019-02-04T03:19:57.809Z,-1.2
2019-02-04T03:20:59.863Z,-1.2
2019-02-04T03:22:01.939Z,-1.2
2019-02-04T03:23:04.197Z,-1.2
2019-02-04T03:24:06.871Z,-1.2
2019-02-04T03:25:08.932Z,-1.3
2019-02-04T03:26:11.674Z,-1.3
2019-02-04T03:27:14.011Z,-1.3
2019-02-04T03:28:16.386Z,-1.4
2019-02-04T03:29:18.453Z,-1.4
2019-02-04T03:30:20.555Z,-1.5
2019-02-04T03:31:23.023Z,-1.5
2019-02-04T03:32:25.099Z,-1.5
2019-02-04T03:33:28.027Z,-1.6
2019-02-04T03:34:30.473Z,-1.5
2019-02-04T03:35:33.660Z,-1.5
2019-02-04T03:36:36.081Z,-1.5
2019-02-04T03:37:38.116Z,-1.5
2019-02-04T03:38:40.160Z,-1.4
2019-02-04T03:39:42.519Z,-1.5
2019-02-04T03:40:44.953Z,-1.6
2019-02-04T03:41:47.005Z,-1.6
2019-02-04T03:42:49.637Z,-1.6
2019-02-04T03:43:51.673Z,-1.6
2019-02-04T03:44:53.722Z,-1.5
2019-02-04T03:45:55.793Z,-1.6
2019-02-04T03:46:58.870Z,-1.6
2019-02-04T03:48:10.770Z,-1.6
2019-02-04T03:49:14.298Z,-1.6
2019-02-04T03:50:17.025Z,-1.6
2019-02-04T03:51:19.101Z,-1.6
2019-02-04T03:52:21.139Z,-1.5
2019-02-04T03:53:23.477Z,-1.6
2019-02-04T03:54:25.540Z,-1.6
2019-02-04T03:55:27.577Z,-1.6
2019-02-04T03:56:29.626Z,-1.6
2019-02-04T03:57:31.680Z,-1.6
2019-02-04T03:58:33.741Z,-1.6
2019-02-04T03:59:35.969Z,-1.7
2019-02-04T04:00:39.386Z,-1.7
2019-02-04T04:01:42.026Z,-1.8
2019-02-04T04:02:44.052Z,-1.8
2019-02-04T04:03:46.090Z,-1.7
2019-02-04T04:04:48.149Z,-1.8
2019-02-04T04:05:50.494Z,-1.8
2019-02-04T04:06:52.543Z,-1.8
2019-02-04T04:07:54.950Z,-1.7
2019-02-04T04:08:56.998Z,-1.8
2019-02-04T04:09:59.051Z,-1.8
2019-02-04T04:11:01.464Z,-1.7
2019-02-04T04:12:04.329Z,-1.7
2019-02-04T04:13:06.990Z,-1.8
2019-02-04T04:14:09.334Z,-1.8
2019-02-04T04:15:11.757Z,-1.7
2019-02-04T04:16:13.801Z,-1.7
2019-02-04T04:17:15.867Z,-1.8
2019-02-04T04:18:17.919Z,-1.7
2019-02-04T04:19:19.988Z,-1.7
2019-02-04T04:20:22.055Z,-1.7
2019-02-04T04:21:24.101Z,-1.7
2019-02-04T04:22:27.127Z,-1.6
2019-02-04T04:23:29.893Z,-1.6
2019-02-04T04:24:31.917Z,-1.6
2019-02-04T04:25:34.255Z,-1.7
2019-02-04T04:26:36.322Z,-1.7
2019-02-04T04:27:38.489Z,-1.7
2019-02-04T04:28:40.516Z,-1.6
2019-02-04T04:29:42.573Z,-1.7
2019-02-04T04:30:44.621Z,-1.8
2019-02-04T04:31:46.677Z,-1.8
2019-02-04T04:32:49.509Z,-1.8
2019-02-04T04:33:52.369Z,-1.8
2019-02-04T04:34:54.904Z,-1.7
2019-02-04T04:35:56.937Z,-1.7
2019-02-04T04:36:58.982Z,-1.8
2019-02-04T04:38:01.309Z,-1.7
2019-02-04T04:39:03.386Z,-1.7
2019-02-04T04:40:05.430Z,-1.8
2019-02-04T04:41:07.809Z,-1.7
2019-02-04T04:42:09.839Z,-1.6
2019-02-04T04:43:11.935Z,-1.7
2019-02-04T04:44:14.963Z,-1.7
2019-02-04T04:45:17.478Z,-1.7
2019-02-04T04:46:19.550Z,-1.7
2019-02-04T04:47:21.588Z,-1.7
2019-02-04T04:48:27.827Z,-1.7
2019-02-04T04:49:29.871Z,-1.7
2019-02-04T04:50:32.607Z,-1.8
2019-02-04T04:51:34.777Z,-1.8
2019-02-04T04:52:37.503Z,-1.8
2019-02-04T04:53:39.576Z,-1.8
2019-02-04T04:54:41.606Z,-1.8
2019-02-04T04:55:44.062Z,-1.9
2019-02-04T04:56:47.044Z,-1.9
2019-02-04T04:57:49.743Z,-1.8
2019-02-04T04:58:52.076Z,-1.8
2019-02-04T04:59:54.108Z,-1.8
2019-02-04T05:00:56.178Z,-1.8
2019-02-04T05:01:58.238Z,-1.9
2019-02-04T05:03:00.283Z,-1.9
2019-02-04T05:04:02.654Z,-1.8
2019-02-04T05:05:04.700Z,-1.8
2019-02-04T05:06:06.766Z,-1.8
2019-02-04T05:07:09.498Z,-1.9
2019-02-04T05:08:12.149Z,-2
2019-02-04T05:09:14.196Z,-2
2019-02-04T05:10:16.382Z,-1.9
2019-02-04T05:11:18.440Z,-1.9
2019-02-04T05:12:20.481Z,-1.9
2019-02-04T05:13:23.121Z,-1.9
2019-02-04T05:14:25.151Z,-1.9
2019-02-04T05:15:27.506Z,-1.9
2019-02-04T05:16:29.670Z,-1.9
2019-02-04T05:17:31.709Z,-1.9
2019-02-04T05:18:39.590Z,-1.9
2019-02-04T05:19:42.662Z,-2
2019-02-04T05:20:45.294Z,-1.9
2019-02-04T05:21:47.655Z,-1.9
2019-02-04T05:22:49.701Z,-1.9
2019-02-04T05:23:51.739Z,-1.9
2019-02-04T05:24:53.795Z,-1.9
2019-02-04T05:25:55.955Z,-1.9
2019-02-04T05:26:57.995Z,-1.9
2019-02-04T05:28:00.055Z,-1.8
2019-02-04T05:29:02.098Z,-1.8
2019-02-04T05:30:04.137Z,-1.8
2019-02-04T05:31:07.141Z,-1.9
2019-02-04T05:32:09.564Z,-1.9
2019-02-04T05:33:11.605Z,-1.9
2019-02-04T05:34:13.669Z,-1.9
2019-02-04T05:35:16.024Z,-1.9
2019-02-04T05:36:18.108Z,-1.8
2019-02-04T05:37:20.161Z,-1.8
2019-02-04T05:38:22.213Z,-1.8
2019-02-04T05:39:24.244Z,-1.8
2019-02-04T05:40:26.425Z,-1.8
2019-02-04T05:41:29.167Z,-1.8
2019-02-04T05:42:35.350Z,-1.8
2019-02-04T05:43:38.415Z,-1.8
2019-02-04T05:44:40.569Z,-1.8
2019-02-04T05:45:42.608Z,-1.8
2019-02-04T05:46:45.703Z,-1.8
2019-02-04T05:47:48.068Z,-1.8
2019-02-04T05:48:50.814Z,-1.8
2019-02-04T05:49:53.150Z,-1.8
2019-02-04T05:50:55.196Z,-1.8
2019-02-04T05:51:57.526Z,-1.8
2019-02-04T05:52:59.570Z,-1.8
2019-02-04T05:54:02.704Z,-1.8
2019-02-04T05:55:05.247Z,-1.8
2019-02-04T05:56:07.292Z,-1.8
2019-02-04T05:57:09.317Z,-1.8
2019-02-04T05:58:11.383Z,-1.8
2019-02-04T05:59:13.424Z,-1.7
2019-02-04T06:00:15.532Z,-1.8
2019-02-04T06:01:18.001Z,-1.9
2019-02-04T06:02:20.155Z,-1.9
2019-02-04T06:03:22.187Z,-1.8
2019-02-04T06:04:25.103Z,-1.9
2019-02-04T06:05:27.595Z,-1.8
2019-02-04T06:06:29.926Z,-1.8
2019-02-04T06:07:32.256Z,-1.9
2019-02-04T06:08:34.317Z,-1.9
2019-02-04T06:09:36.713Z,-1.9
2019-02-04T06:10:38.785Z,-1.9
2019-02-04T06:11:40.846Z,-1.9
2019-02-04T06:12:42.865Z,-1.8
2019-02-04T06:13:45.206Z,-1.9
2019-02-04T06:14:47.249Z,-1.9
2019-02-04T06:15:50.506Z,-1.8
2019-02-04T06:16:53.092Z,-1.8
2019-02-04T06:17:55.124Z,-1.8
2019-02-04T06:19:02.182Z,-1.8
2019-02-04T06:20:04.305Z,-1.8
2019-02-04T06:21:06.366Z,-1.8
2019-02-04T06:22:08.721Z,-1.8
2019-02-04T06:23:10.772Z,-1.8
2019-02-04T06:24:12.830Z,-1.8
2019-02-04T06:25:15.703Z,-1.9
2019-02-04T06:26:17.991Z,-1.9
2019-02-04T06:27:20.965Z,-1.9
2019-02-04T06:28:25.981Z,-1.9
2019-02-04T06:29:28.473Z,-1.9
2019-02-04T06:30:30.529Z,-1.9
2019-02-04T06:31:32.860Z,-1.9
2019-02-04T06:32:35.906Z,-1.9
2019-02-04T06:33:37.988Z,-1.9
2019-02-04T06:34:40.033Z,-1.9
2019-02-04T06:35:42.079Z,-1.9
2019-02-04T06:36:44.131Z,-1.9
2019-02-04T06:37:48.334Z,-1.9
2019-02-04T06:38:50.504Z,-1.9
2019-02-04T06:39:53.486Z,-1.9
2019-02-04T06:40:56.013Z,-1.9
2019-02-04T06:41:58.078Z,-1.9
2019-02-04T06:43:00.113Z,-1.9
2019-02-04T06:44:02.156Z,-1.9
2019-02-04T06:45:04.577Z,-1.9
2019-02-04T06:46:06.646Z,-1.9
2019-02-04T06:47:08.683Z,-1.9
2019-02-04T06:48:10.749Z,-1.9
2019-02-04T06:49:14.082Z,-1.9
2019-02-04T06:50:16.144Z,-1.8
2019-02-04T06:51:18.887Z,-1.9
2019-02-04T06:52:21.512Z,-1.8
2019-02-04T06:53:24.338Z,-1.8
2019-02-04T06:54:26.374Z,-1.9
2019-02-04T06:55:28.713Z,-1.8
2019-02-04T06:56:30.783Z,-1.8
2019-02-04T06:57:32.814Z,-1.8
2019-02-04T06:58:34.865Z,-1.8
2019-02-04T06:59:37.285Z,-1.8
2019-02-04T07:00:39.344Z,-1.8
2019-02-04T07:01:42.124Z,-1.9
2019-02-04T07:02:44.685Z,-1.8
2019-02-04T07:03:47.118Z,-1.8
2019-02-04T07:04:49.560Z,-1.8
2019-02-04T07:05:51.606Z,-1.8
2019-02-04T07:06:53.656Z,-1.8
2019-02-04T07:07:55.977Z,-1.8
2019-02-04T07:08:58.023Z,-1.8
2019-02-04T07:10:00.097Z,-1.8
2019-02-04T07:11:02.319Z,-1.8
2019-02-04T07:12:05.470Z,-1.7
2019-02-04T07:13:07.703Z,-1.6
2019-02-04T07:14:10.604Z,-1.6
2019-02-04T07:15:12.658Z,-1.7
2019-02-04T07:16:14.801Z,-1.7
2019-02-04T07:17:17.234Z,-1.6
2019-02-04T07:18:19.278Z,-1.6
2019-02-04T07:19:25.702Z,-1.6
2019-02-04T07:20:28.139Z,-1.6
2019-02-04T07:21:30.201Z,-1.6
2019-02-04T07:22:32.319Z,-1.5
2019-02-04T07:23:34.643Z,-1.5
2019-02-04T07:24:44.144Z,-1.3
2019-02-04T07:25:47.216Z,-1.4
2019-02-04T07:26:49.917Z,-1.4
2019-02-04T07:27:52.232Z,-1.4
2019-02-04T07:28:54.341Z,-1.4
2019-02-04T07:29:56.424Z,-1.3
2019-02-04T07:30:58.468Z,-1.3
2019-02-04T07:32:00.611Z,-1.3
2019-02-04T07:33:02.673Z,-1.3
2019-02-04T07:34:04.713Z,-1.3
2019-02-04T07:35:07.060Z,-1.2
2019-02-04T07:36:10.129Z,-1.1
2019-02-04T07:37:12.723Z,-1.1
2019-02-04T07:38:14.789Z,-1
2019-02-04T07:39:17.141Z,-1
2019-02-04T07:40:19.196Z,-0.9
2019-02-04T07:41:21.357Z,-0.9
2019-02-04T07:42:23.429Z,-0.8
2019-02-04T07:43:25.507Z,-0.8
2019-02-04T07:44:27.622Z,-0.6
2019-02-04T07:45:29.985Z,-0.6
2019-02-04T07:46:32.734Z,-0.6
2019-02-04T07:47:34.913Z,-0.6
2019-02-04T07:48:37.544Z,-0.6
2019-02-04T07:49:39.877Z,-0.5
2019-02-04T07:50:42.301Z,-0.4
2019-02-04T07:51:44.742Z,-0.4
2019-02-04T07:52:46.817Z,-0.2
2019-02-04T07:53:48.867Z,-0.3
2019-02-04T07:54:50.921Z,-0.2
2019-02-04T07:55:53.271Z,-0.1
2019-02-04T07:56:55.304Z,-0.1
2019-02-04T07:57:59.618Z,0
2019-02-04T07:59:02.626Z,0.1
2019-02-04T08:00:05.315Z,0.1
2019-02-04T08:01:07.372Z,0.2
2019-02-04T08:02:09.474Z,0.2
2019-02-04T08:03:11.542Z,0.1
2019-02-04T08:04:16.961Z,0.2
2019-02-04T08:05:19.068Z,0.4
2019-02-04T08:06:21.223Z,0.3
2019-02-04T08:07:23.256Z,0.4
2019-02-04T08:08:25.438Z,0.3
2019-02-04T08:09:28.231Z,0.2
2019-02-04T08:10:31.077Z,0.4
2019-02-04T08:11:34.069Z,0.5
2019-02-04T08:12:36.098Z,0.5
2019-02-04T08:13:38.144Z,0.6
2019-02-04T08:14:40.204Z,0.6
2019-02-04T08:15:42.380Z,0.6
2019-02-04T08:16:44.440Z,0.7
2019-02-04T08:17:46.473Z,0.6
2019-02-04T08:18:48.524Z,0.7
2019-02-04T08:19:50.568Z,0.7
2019-02-04T08:20:53.544Z,0.6
2019-02-04T08:21:56.078Z,0.6
2019-02-04T08:22:58.184Z,0.9
2019-02-04T08:24:00.221Z,0.8
2019-02-04T08:25:02.544Z,0.7
2019-02-04T08:26:04.631Z,0.8
2019-02-04T08:27:06.670Z,0.8
2019-02-04T08:28:08.733Z,0.8
2019-02-04T08:29:10.817Z,0.8
2019-02-04T08:30:13.173Z,0.8
2019-02-04T08:31:15.605Z,0.8
2019-02-04T08:32:18.574Z,0.8
2019-02-04T08:33:21.406Z,0.9
2019-02-04T08:34:23.741Z,1
2019-02-04T08:35:25.853Z,0.8
2019-02-04T08:36:47.664Z,0.9
2019-02-04T08:37:50.338Z,1
2019-02-04T08:38:52.542Z,1.1
2019-02-04T08:39:54.776Z,1
2019-02-04T08:40:56.951Z,1.1
2019-02-04T08:41:59.132Z,1
2019-02-04T08:43:01.310Z,1
2019-02-04T08:44:03.781Z,1
2019-02-04T08:45:06.508Z,0.9
2019-02-04T08:46:08.925Z,1.1
2019-02-04T08:47:25.215Z,1.3
2019-02-04T08:48:28.354Z,1
2019-02-04T08:49:31.553Z,1.1
2019-02-04T08:50:34.102Z,1.3
2019-02-04T08:51:36.299Z,1.4
2019-02-04T08:52:39.054Z,1.3
2019-02-04T08:53:41.250Z,1.5
2019-02-04T08:54:43.486Z,1.4
2019-02-04T08:55:45.707Z,1.5
2019-02-04T08:56:47.910Z,1.7
2019-02-04T08:57:50.090Z,1.7
2019-02-04T08:58:53.059Z,1.7
2019-02-04T08:59:55.833Z,1.8
2019-02-04T09:00:58.026Z,1.8
2019-02-04T09:02:00.487Z,1.9
2019-02-04T09:03:02.662Z,1.8
2019-02-04T09:04:04.870Z,1.6
2019-02-04T09:05:07.047Z,1.8
2019-02-04T09:06:09.232Z,2
2019-02-04T09:07:11.420Z,2.1
2019-02-04T09:08:13.624Z,2.1
2019-02-04T09:09:16.714Z,2.2
2019-02-04T09:10:19.405Z,2.2
2019-02-04T09:11:21.591Z,2.2
2019-02-04T09:12:24.179Z,2.3
2019-02-04T09:13:26.360Z,2.3
2019-02-04T09:14:28.536Z,2
2019-02-04T09:15:30.800Z,2.2
2019-02-04T09:16:33.038Z,2.3
2019-02-04T09:17:35.529Z,2.4
2019-02-04T09:18:46.089Z,2.5
2019-02-04T09:19:48.263Z,2.4
2019-02-04T09:20:50.466Z,2.4
2019-02-04T09:21:53.453Z,2.6
2019-02-04T09:22:56.269Z,2.4
2019-02-04T09:23:58.469Z,2.7
2019-02-04T09:25:00.762Z,2.9
2019-02-04T09:26:03.234Z,2.8
2019-02-04T09:27:05.413Z,2.9
2019-02-04T09:28:07.868Z,2.8
2019-02-04T09:29:10.074Z,2.6
2019-02-04T09:30:12.254Z,2.6
2019-02-04T09:31:14.740Z,3
2019-02-04T09:32:17.822Z,2.8
2019-02-04T09:33:20.513Z,2.9
2019-02-04T09:34:22.691Z,2.8
2019-02-04T09:35:24.886Z,2.8
2019-02-04T09:36:27.088Z,3.1
2019-02-04T09:37:29.549Z,3.2
2019-02-04T09:38:31.716Z,3.1
2019-02-04T09:39:33.951Z,3.1
2019-02-04T09:40:36.215Z,3
2019-02-04T09:41:38.405Z,3
2019-02-04T09:42:41.561Z,3.2
2019-02-04T09:43:43.745Z,3.1
2019-02-04T09:44:46.658Z,3.2
2019-02-04T09:45:48.800Z,2.8
2019-02-04T09:46:50.977Z,3
2019-02-04T09:47:53.193Z,3.1
2019-02-04T09:50:53.091Z,3.4
2019-02-04T09:51:55.251Z,3.6
2019-02-04T09:52:58.509Z,3.7
2019-02-04T09:54:01.648Z,3.6
2019-02-04T09:55:18.844Z,3.2
2019-02-04T09:56:21.996Z,3.5
2019-02-04T09:57:24.461Z,3.3
2019-02-04T09:58:26.622Z,3.3
2019-02-04T09:59:29.089Z,3.6
2019-02-04T10:00:31.892Z,3.7
2019-02-04T10:01:34.171Z,3.6
2019-02-04T10:02:36.346Z,3.8
2019-02-04T10:03:38.511Z,3.7
2019-02-04T10:04:40.641Z,3.9
2019-02-04T10:05:42.795Z,3.6
2019-02-04T10:06:45.826Z,4
2019-02-04T10:07:48.441Z,4
2019-02-04T10:08:51.453Z,3.9
2019-02-04T10:09:53.600Z,3.7
2019-02-04T10:10:55.756Z,4
2019-02-04T10:11:58.293Z,4.2
2019-02-04T10:13:00.465Z,4.3
2019-02-04T10:14:02.637Z,4.2
2019-02-04T10:15:05.607Z,4.1
2019-02-04T10:16:07.907Z,4.2
2019-02-04T10:17:10.333Z,4.3
2019-02-04T10:18:13.193Z,4.3
2019-02-04T10:19:16.375Z,4.5
2019-02-04T10:20:19.684Z,4.5
2019-02-04T10:21:22.247Z,4.3
2019-02-04T10:22:24.569Z,4.4
2019-02-04T10:23:27.735Z,4.2
2019-02-04T10:24:30.271Z,4.4
2019-02-04T10:25:32.529Z,4.4
2019-02-04T10:26:35.021Z,4.2
2019-02-04T10:27:37.338Z,4.4
2019-02-04T10:28:39.610Z,4.5
2019-02-04T10:29:42.011Z,4.4
2019-02-04T10:30:45.632Z,4.6
2019-02-04T10:31:48.565Z,4.5
2019-02-04T10:32:50.901Z,4.4
2019-02-04T10:33:53.393Z,4.4
2019-02-04T10:34:56.038Z,4.6
2019-02-04T10:35:58.434Z,4.8
2019-02-04T10:37:00.762Z,4.5
2019-02-04T10:38:03.215Z,4.7
2019-02-04T10:39:05.919Z,4.5
2019-02-04T10:40:08.504Z,4.6
2019-02-04T10:41:10.814Z,4.3
2019-02-04T10:42:14.299Z,4.5
2019-02-04T10:43:17.552Z,4.4
2019-02-04T10:44:19.905Z,4.8
2019-02-04T10:45:22.513Z,4.7
2019-02-04T10:46:25.142Z,4.8
2019-02-04T10:47:27.442Z,4.6
2019-02-04T10:48:30.137Z,4.5
2019-02-04T10:49:32.523Z,4.6
2019-02-04T10:50:48.152Z,4.6
2019-02-04T10:51:50.517Z,4.8
2019-02-04T10:52:53.177Z,4.7
2019-02-04T10:53:55.485Z,5.1
2019-02-04T10:54:57.786Z,5.1
2019-02-04T10:56:01.782Z,4.9
2019-02-04T10:57:04.415Z,5.3
2019-02-04T10:58:06.727Z,5.2
2019-02-04T10:59:08.968Z,5.1
2019-02-04T11:00:11.394Z,5
2019-02-04T11:01:13.698Z,5.1
2019-02-04T11:02:16.115Z,5
2019-02-04T11:03:21.442Z,5
2019-02-04T11:04:23.785Z,5.1
2019-02-04T11:05:26.170Z,4.8
2019-02-04T11:06:28.609Z,4.9
2019-02-04T11:07:32.342Z,4.9
2019-02-04T11:08:35.045Z,5
2019-02-04T11:09:37.678Z,4.9
2019-02-04T11:10:40.327Z,5.1
2019-02-04T11:11:42.681Z,5.1
2019-02-04T11:14:42.684Z,5.1
2019-02-04T11:15:45.220Z,5.1
2019-02-04T11:16:47.544Z,5
2019-02-04T11:17:50.783Z,4.8
2019-02-04T11:18:53.951Z,5
2019-02-04T11:19:56.967Z,5.2
2019-02-04T11:20:59.841Z,5.3
2019-02-04T11:22:02.842Z,5.1
2019-02-04T11:23:05.195Z,5.1
2019-02-04T11:24:07.460Z,5.1
2019-02-04T11:25:09.804Z,5
2019-02-04T11:26:12.263Z,5.2
2019-02-04T11:27:14.531Z,5.1
2019-02-04T11:28:17.839Z,5
2019-02-04T11:29:20.372Z,4.6
2019-02-04T11:30:23.532Z,4.8
2019-02-04T11:31:26.873Z,4.9
2019-02-04T11:32:29.430Z,4.9
2019-02-04T11:33:31.857Z,4.9
2019-02-04T11:34:34.458Z,5.1
2019-02-04T11:35:36.811Z,5.1
2019-02-04T11:36:39.040Z,5.1
2019-02-04T11:37:41.636Z,5
2019-02-04T11:38:44.070Z,4.9
2019-02-04T11:39:46.759Z,4.9
2019-02-04T11:40:49.343Z,4.9
2019-02-04T11:41:52.724Z,4.8
2019-02-04T11:42:55.896Z,4.7
2019-02-04T11:43:58.769Z,4.7
2019-02-04T11:45:01.275Z,4.7
2019-02-04T11:46:04.751Z,4.7
2019-02-04T11:47:07.226Z,4.7
2019-02-04T11:48:09.643Z,4.6
2019-02-04T11:49:12.237Z,4.6
2019-02-04T11:50:14.390Z,4.8
2019-02-04T11:51:16.533Z,4.6
2019-02-04T11:52:18.797Z,4.8
2019-02-04T11:53:34.337Z,4.8
2019-02-04T11:54:36.486Z,4.7
2019-02-04T11:55:39.579Z,4.7
2019-02-04T11:56:42.248Z,4.8
2019-02-04T11:57:44.814Z,4.7
2019-02-04T11:58:46.974Z,4.6
2019-02-04T11:59:49.133Z,4.6
2019-02-04T12:00:51.278Z,4.7
2019-02-04T12:01:53.429Z,4.4
2019-02-04T12:02:55.857Z,4.7
2019-02-04T12:03:57.990Z,4.6
2019-02-04T12:05:00.191Z,4.6
2019-02-04T12:06:02.659Z,4.8
2019-02-04T12:07:05.910Z,4.6
2019-02-04T12:08:09.117Z,4.7
2019-02-04T12:09:11.275Z,4.7
2019-02-04T12:10:13.414Z,4.7
2019-02-04T12:11:15.567Z,4.7
2019-02-04T12:12:17.723Z,4.6
2019-02-04T12:13:20.003Z,4.6
2019-02-04T12:14:22.157Z,4.4
2019-02-04T12:15:24.306Z,4.4
2019-02-04T12:16:26.601Z,4.5
2019-02-04T12:17:29.325Z,4.4
2019-02-04T12:18:31.495Z,4.4
2019-02-04T12:19:34.217Z,4.3
2019-02-04T12:20:39.704Z,4.4
2019-02-04T12:21:42.222Z,4.2
2019-02-04T12:22:44.375Z,4.2
2019-02-04T12:23:46.638Z,4.2
2019-02-04T12:24:48.766Z,4.1
2019-02-04T12:25:50.924Z,4.2
2019-02-04T12:26:53.336Z,4.3
2019-02-04T12:27:55.792Z,4.2
2019-02-04T12:28:59.118Z,4.1
2019-02-04T12:30:02.694Z,4.2
2019-02-04T12:31:05.385Z,4.2
2019-02-04T12:32:07.521Z,4.2
2019-02-04T12:33:10.090Z,4.2
2019-02-04T12:34:12.222Z,4.1
2019-02-04T12:35:14.367Z,4.1
2019-02-04T12:36:17.122Z,4.1
2019-02-04T12:37:19.378Z,4.1
2019-02-04T12:38:21.791Z,4.1
2019-02-04T12:39:23.933Z,4.1
2019-02-04T12:40:26.737Z,4.1
2019-02-04T12:41:28.890Z,4.1
2019-02-04T12:42:32.106Z,4.1
2019-02-04T12:43:34.382Z,4
2019-02-04T12:44:36.621Z,4.1
2019-02-04T12:45:38.755Z,4.1
2019-02-04T12:46:41.293Z,4.1
2019-02-04T12:47:43.460Z,4.1
2019-02-04T12:48:45.600Z,4.1
2019-02-04T12:49:48.135Z,4.1
2019-02-04T12:50:50.646Z,4.1
2019-02-04T12:51:53.750Z,4.1
2019-02-04T12:52:56.357Z,4.1
2019-02-04T12:53:58.498Z,4.1
2019-02-04T12:55:01.077Z,4.1
2019-02-04T12:56:03.285Z,4.2
2019-02-04T12:57:05.437Z,4
2019-02-04T12:58:07.876Z,4
2019-02-04T12:59:10.036Z,4.1
2019-02-04T13:00:12.181Z,4.1
2019-02-04T13:01:14.330Z,4.1
2019-02-04T13:02:16.475Z,4
2019-02-04T13:03:19.544Z,3.9
2019-02-04T13:04:22.557Z,3.9
2019-02-04T13:05:24.741Z,4
2019-02-04T13:06:26.897Z,4
2019-02-04T13:07:29.307Z,4
2019-02-04T13:08:31.476Z,4
2019-02-04T13:09:33.680Z,4
2019-02-04T13:10:35.829Z,4
2019-02-04T13:11:38.000Z,4
2019-02-04T13:12:40.415Z,3.9
2019-02-04T13:13:42.561Z,4
2019-02-04T13:14:46.070Z,4
2019-02-04T13:15:48.890Z,4
2019-02-04T13:16:51.022Z,3.8
2019-02-04T13:17:53.171Z,3.9
2019-02-04T13:18:55.583Z,3.8
2019-02-04T13:19:58.721Z,3.8
2019-02-04T13:21:00.884Z,3.9
2019-02-04T13:22:03.315Z,3.9
2019-02-04T13:23:05.568Z,3.9
2019-02-04T13:24:07.742Z,3.9
2019-02-04T13:25:10.839Z,3.9
2019-02-04T13:26:13.263Z,3.8
2019-02-04T13:27:16.059Z,3.8
2019-02-04T13:28:18.229Z,3.8
2019-02-04T13:29:20.798Z,3.8
2019-02-04T13:30:22.948Z,3.8
2019-02-04T13:31:25.407Z,3.8
2019-02-04T13:32:27.564Z,3.8
2019-02-04T13:33:29.982Z,3.8
2019-02-04T13:34:32.130Z,3.8
2019-02-04T13:35:34.291Z,3.8
2019-02-04T13:36:37.028Z,3.8
2019-02-04T13:37:39.618Z,3.8
2019-02-04T13:38:42.433Z,3.8
2019-02-04T13:39:44.892Z,3.8
2019-02-04T13:40:47.320Z,3.8
2019-02-04T13:41:49.474Z,3.7
2019-02-04T13:42:51.611Z,3.7
2019-02-04T13:43:53.743Z,3.7
2019-02-04T13:44:56.305Z,3.7
2019-02-04T13:45:58.475Z,3.7
2019-02-04T13:47:00.952Z,3.7
2019-02-04T13:48:04.519Z,3.7
2019-02-04T13:49:07.718Z,3.7
2019-02-04T13:50:10.589Z,3.7
2019-02-04T13:51:12.749Z,3.7
2019-02-04T13:52:16.901Z,3.7
2019-02-04T13:53:19.113Z,3.7
2019-02-04T13:54:21.283Z,3.7
2019-02-04T13:55:23.448Z,3.7
2019-02-04T13:56:25.620Z,3.7
2019-02-04T13:57:27.922Z,3.7
2019-02-04T13:58:30.152Z,3.7
2019-02-04T13:59:33.094Z,3.6
2019-02-04T14:00:36.340Z,3.7
2019-02-04T14:01:39.068Z,3.7
2019-02-04T14:02:41.749Z,3.7
2019-02-04T14:03:43.931Z,3.7
2019-02-04T14:04:46.111Z,3.7
2019-02-04T14:05:48.259Z,3.7
2019-02-04T14:06:50.743Z,3.6
2019-02-04T14:07:53.594Z,3.7
2019-02-04T14:08:55.791Z,3.7
2019-02-04T14:10:00.572Z,3.6
2019-02-04T14:11:02.717Z,3.7
2019-02-04T14:12:06.167Z,3.7
2019-02-04T14:13:09.489Z,3.7